Terminal Aerodrome Forecast
Issued by NWS

Current Version | Previous Version | Graphics & Text | Print | Product List | Glossary On
Versions: 1 2 3 4 5 6 7 8 9 10 11 12 13 14 15 16 17 18 19 20 21 22 23 24 25
000
FTUS41 KILN 281450 AAB
TAFLCK
TAF AMD
KLCK 281450Z 2815/2912 02005KT P6SM BKN016 OVC035
      TEMPO 2815/2816 BKN016
     FM281600 03006KT P6SM SCT015 BKN040
     FM281800 01012G20KT P6SM BKN040
     FM290100 01010KT P6SM SCT250=

USA.gov is the U.S. government's official web portal to all federal, state and local government web resources and services.